sensor_id;sensor_type;location;lat;lon;timestamp;pressure;altitude;pressure_sealevel;temperature;humidity
16664;BME280;8445;51.270;9.434;2023-09-19T00:05:24;98700.63;;;13.95;83.71
16664;BME280;8445;51.270;9.434;2023-09-19T00:08:04;98708.66;;;13.95;83.72
16664;BME280;8445;51.270;9.434;2023-09-19T00:10:46;98710.75;;;13.93;84.02
16664;BME280;8445;51.270;9.434;2023-09-19T00:13:40;98722.75;;;14.02;83.90
16664;BME280;8445;51.270;9.434;2023-09-19T00:16:36;98754.88;;;14.14;83.86
16664;BME280;8445;51.270;9.434;2023-09-19T00:19:31;98732.03;;;14.00;83.80
16664;BME280;8445;51.270;9.434;2023-09-19T00:22:28;98714.25;;;13.94;83.80
16664;BME280;8445;51.270;9.434;2023-09-19T00:25:25;98702.47;;;13.83;83.99
16664;BME280;8445;51.270;9.434;2023-09-19T00:28:07;98741.97;;;14.11;83.94
16664;BME280;8445;51.270;9.434;2023-09-19T00:30:55;98714.59;;;13.97;83.76
16664;BME280;8445;51.270;9.434;2023-09-19T00:33:40;98741.72;;;14.12;84.35
16664;BME280;8445;51.270;9.434;2023-09-19T00:36:36;98732.19;;;14.05;84.08
16664;BME280;8445;51.270;9.434;2023-09-19T00:42:51;98749.66;;;14.07;84.09
16664;BME280;8445;51.270;9.434;2023-09-19T00:45:18;98785.97;;;14.27;84.34
16664;BME280;8445;51.270;9.434;2023-09-19T00:47:59;98719.13;;;13.85;84.79
16664;BME280;8445;51.270;9.434;2023-09-19T00:50:46;98776.78;;;14.23;84.72
16664;BME280;8445;51.270;9.434;2023-09-19T00:53:26;98729.34;;;13.88;84.95
16664;BME280;8445;51.270;9.434;2023-09-19T00:55:59;98762.00;;;14.08;85.26
16664;BME280;8445;51.270;9.434;2023-09-19T00:58:58;98741.56;;;13.84;85.10
16664;BME280;8445;51.270;9.434;2023-09-19T01:01:30;98738.31;;;13.82;85.74
16664;BME280;8445;51.270;9.434;2023-09-19T01:04:11;98747.97;;;13.83;85.74
16664;BME280;8445;51.270;9.434;2023-09-19T01:07:04;98744.25;;;13.84;86.42
16664;BME280;8445;51.270;9.434;2023-09-19T01:09:54;98762.91;;;13.90;86.39
16664;BME280;8445;51.270;9.434;2023-09-19T01:12:47;98795.53;;;14.23;86.35
16664;BME280;8445;51.270;9.434;2023-09-19T01:21:37;98730.38;;;13.75;86.79
16664;BME280;8445;51.270;9.434;2023-09-19T01:28:06;98816.94;;;14.11;87.34
16664;BME280;8445;51.270;9.434;2023-09-19T01:30:45;98767.03;;;13.75;86.79
16664;BME280;8445;51.270;9.434;2023-09-19T01:34:03;98770.97;;;13.72;87.49
16664;BME280;8445;51.270;9.434;2023-09-19T01:39:51;98777.53;;;13.76;87.04
16664;BME280;8445;51.270;9.434;2023-09-19T01:43:19;98826.13;;;14.03;87.09
16664;BME280;8445;51.270;9.434;2023-09-19T01:46:20;98789.38;;;13.69;87.50
16664;BME280;8445;51.270;9.434;2023-09-19T01:49:36;98844.88;;;14.03;87.61
16664;BME280;8445;51.270;9.434;2023-09-19T01:52:13;98791.47;;;13.67;87.01
16664;BME280;8445;51.270;9.434;2023-09-19T01:55:02;98853.91;;;13.90;87.00
16664;BME280;8445;51.270;9.434;2023-09-19T01:58:16;98877.78;;;13.92;86.86
16664;BME280;8445;51.270;9.434;2023-09-19T02:00:55;98870.22;;;13.89;87.28
16664;BME280;8445;51.270;9.434;2023-09-19T02:03:26;98836.59;;;13.63;86.99
16664;BME280;8445;51.270;9.434;2023-09-19T02:06:20;98809.03;;;13.44;87.15
16664;BME280;8445;51.270;9.434;2023-09-19T02:08:53;98841.94;;;13.63;87.38
16664;BME280;8445;51.270;9.434;2023-09-19T02:11:25;98837.47;;;13.57;87.41
16664;BME280;8445;51.270;9.434;2023-09-19T02:13:54;98863.84;;;13.72;87.42
16664;BME280;8445;51.270;9.434;2023-09-19T02:16:29;98866.75;;;13.70;87.28
16664;BME280;8445;51.270;9.434;2023-09-19T02:19:03;98885.41;;;13.77;87.34
16664;BME280;8445;51.270;9.434;2023-09-19T02:21:37;98833.81;;;13.40;87.25
16664;BME280;8445;51.270;9.434;2023-09-19T02:24:09;98823.16;;;13.33;86.99
16664;BME280;8445;51.270;9.434;2023-09-19T02:26:42;98848.22;;;13.39;87.17
16664;BME280;8445;51.270;9.434;2023-09-19T02:29:09;98842.69;;;13.34;86.97
16664;BME280;8445;51.270;9.434;2023-09-19T02:31:47;98854.44;;;13.32;87.11
16664;BME280;8445;51.270;9.434;2023-09-19T02:34:15;98843.97;;;13.31;86.75
16664;BME280;8445;51.270;9.434;2023-09-19T02:36:45;98839.78;;;13.17;86.98
16664;BME280;8445;51.270;9.434;2023-09-19T02:39:24;98832.69;;;13.11;87.08
16664;BME280;8445;51.270;9.434;2023-09-19T02:41:51;98849.41;;;13.24;86.73
16664;BME280;8445;51.270;9.434;2023-09-19T02:44:19;98842.31;;;13.12;87.21
16664;BME280;8445;51.270;9.434;2023-09-19T02:47:26;98883.50;;;13.29;87.07
16664;BME280;8445;51.270;9.434;2023-09-19T02:50:23;98832.13;;;13.02;87.14
16664;BME280;8445;51.270;9.434;2023-09-19T02:53:25;98874.72;;;13.22;87.00
16664;BME280;8445;51.270;9.434;2023-09-19T02:56:25;98840.44;;;12.94;87.04
16664;BME280;8445;51.270;9.434;2023-09-19T03:04:35;98857.75;;;12.91;86.75
16664;BME280;8445;51.270;9.434;2023-09-19T03:08:16;98886.66;;;13.01;86.40
16664;BME280;8445;51.270;9.434;2023-09-19T03:16:02;98861.00;;;12.75;86.37
16664;BME280;8445;51.270;9.434;2023-09-19T03:19:20;98891.91;;;12.89;86.19
16664;BME280;8445;51.270;9.434;2023-09-19T03:23:09;98878.00;;;12.81;86.33
16664;BME280;8445;51.270;9.434;2023-09-19T03:30:14;98877.47;;;12.72;86.36
16664;BME280;8445;51.270;9.434;2023-09-19T03:37:33;98882.84;;;12.65;86.29
16664;BME280;8445;51.270;9.434;2023-09-19T03:40:32;98900.69;;;12.71;86.27
16664;BME280;8445;51.270;9.434;2023-09-19T03:43:56;98888.19;;;12.65;86.13
16664;BME280;8445;51.270;9.434;2023-09-19T03:47:11;98881.88;;;12.60;86.07
16664;BME280;8445;51.270;9.434;2023-09-19T03:54:13;98897.09;;;12.59;86.19
16664;BME280;8445;51.270;9.434;2023-09-19T03:57:33;98893.88;;;12.51;86.02
16664;BME280;8445;51.270;9.434;2023-09-19T04:04:23;98894.69;;;12.51;86.24
16664;BME280;8445;51.270;9.434;2023-09-19T04:08:31;98906.78;;;12.79;86.01
16664;BME280;8445;51.270;9.434;2023-09-19T04:12:17;98950.09;;;13.12;85.85
16664;BME280;8445;51.270;9.434;2023-09-19T04:19:16;98926.25;;;13.11;85.87
16664;BME280;8445;51.270;9.434;2023-09-19T04:26:37;98900.56;;;13.10;85.73
16664;BME280;8445;51.270;9.434;2023-09-19T04:33:48;98915.47;;;13.24;85.45
16664;BME280;8445;51.270;9.434;2023-09-19T04:41:17;98909.50;;;13.40;85.58
16664;BME280;8445;51.270;9.434;2023-09-19T04:44:00;98896.94;;;13.41;85.55
16664;BME280;8445;51.270;9.434;2023-09-19T04:47:27;98905.69;;;13.48;85.31
16664;BME280;8445;51.270;9.434;2023-09-19T04:51:01;98961.22;;;13.89;85.57
16664;BME280;8445;51.270;9.434;2023-09-19T04:54:22;98914.63;;;13.60;85.57
16664;BME280;8445;51.270;9.434;2023-09-19T04:57:33;98941.81;;;13.75;85.50
16664;BME280;8445;51.270;9.434;2023-09-19T05:08:04;98915.81;;;13.64;85.24
16664;BME280;8445;51.270;9.434;2023-09-19T05:18:29;98925.09;;;13.43;85.25
16664;BME280;8445;51.270;9.434;2023-09-19T05:24:50;98963.00;;;13.58;85.11
16664;BME280;8445;51.270;9.434;2023-09-19T05:28:18;98978.78;;;13.67;84.85
16664;BME280;8445;51.270;9.434;2023-09-19T05:35:23;98945.63;;;13.49;84.98
16664;BME280;8445;51.270;9.434;2023-09-19T05:50:02;98969.19;;;13.59;84.57
16664;BME280;8445;51.270;9.434;2023-09-19T05:57:00;99012.84;;;13.78;84.45
16664;BME280;8445;51.270;9.434;2023-09-19T06:00:43;99044.22;;;14.07;84.43
16664;BME280;8445;51.270;9.434;2023-09-19T06:03:57;99046.22;;;14.12;84.30
16664;BME280;8445;51.270;9.434;2023-09-19T06:07:18;99011.88;;;13.90;84.02
16664;BME280;8445;51.270;9.434;2023-09-19T06:14:54;99028.97;;;14.08;83.46
16664;BME280;8445;51.270;9.434;2023-09-19T06:22:22;99054.91;;;14.44;82.43
16664;BME280;8445;51.270;9.434;2023-09-19T06:25:47;99050.59;;;14.43;82.14
16664;BME280;8445;51.270;9.434;2023-09-19T06:29:05;99038.19;;;14.42;81.87
16664;BME280;8445;51.270;9.434;2023-09-19T06:40:53;99114.16;;;15.14;79.41
16664;BME280;8445;51.270;9.434;2023-09-19T06:48:32;99081.84;;;15.09;78.38
16664;BME280;8445;51.270;9.434;2023-09-19T06:51:50;99091.56;;;15.33;78.24
16664;BME280;8445;51.270;9.434;2023-09-19T07:06:22;99087.53;;;15.78;76.59
16664;BME280;8445;51.270;9.434;2023-09-19T07:09:58;99107.38;;;16.00;75.84
16664;BME280;8445;51.270;9.434;2023-09-19T07:13:03;99099.78;;;16.09;75.85
16664;BME280;8445;51.270;9.434;2023-09-19T07:16:02;99116.91;;;16.31;74.98
16664;BME280;8445;51.270;9.434;2023-09-19T07:23:17;99109.50;;;16.50;73.55
16664;BME280;8445;51.270;9.434;2023-09-19T07:31:28;99102.88;;;16.81;72.83
16664;BME280;8445;51.270;9.434;2023-09-19T07:42:05;99101.41;;;17.35;71.46
16664;BME280;8445;51.270;9.434;2023-09-19T07:44:56;99123.09;;;17.62;70.82
16664;BME280;8445;51.270;9.434;2023-09-19T07:48:27;99107.19;;;17.61;70.52
16664;BME280;8445;51.270;9.434;2023-09-19T07:51:51;99106.41;;;17.77;70.18
16664;BME280;8445;51.270;9.434;2023-09-19T08:05:16;99134.72;;;18.79;67.89
16664;BME280;8445;51.270;9.434;2023-09-19T08:08:05;99102.59;;;18.77;67.60
16664;BME280;8445;51.270;9.434;2023-09-19T08:10:59;99101.22;;;18.97;66.45
16664;BME280;8445;51.270;9.434;2023-09-19T08:14:31;99118.69;;;19.21;64.64
16664;BME280;8445;51.270;9.434;2023-09-19T08:17:26;99101.38;;;19.17;65.19
16664;BME280;8445;51.270;9.434;2023-09-19T08:24:00;99117.00;;;19.42;64.70
16664;BME280;8445;51.270;9.434;2023-09-19T08:27:05;99102.97;;;19.45;65.04
16664;BME280;8445;51.270;9.434;2023-09-19T08:38:26;99151.69;;;19.87;62.64
16664;BME280;8445;51.270;9.434;2023-09-19T08:41:41;99140.94;;;19.92;62.10
16664;BME280;8445;51.270;9.434;2023-09-19T08:44:30;99142.03;;;19.96;62.75
16664;BME280;8445;51.270;9.434;2023-09-19T08:52:41;99131.88;;;20.14;61.09
16664;BME280;8445;51.270;9.434;2023-09-19T08:55:11;99112.94;;;20.14;59.93
16664;BME280;8445;51.270;9.434;2023-09-19T08:57:41;99138.97;;;20.25;59.91
16664;BME280;8445;51.270;9.434;2023-09-19T09:00:14;99162.94;;;20.48;60.22
16664;BME280;8445;51.270;9.434;2023-09-19T09:03:09;99126.25;;;20.25;58.97
16664;BME280;8445;51.270;9.434;2023-09-19T09:05:59;99142.28;;;20.37;57.40
16664;BME280;8445;51.270;9.434;2023-09-19T09:08:33;99149.41;;;20.48;57.49
16664;BME280;8445;51.270;9.434;2023-09-19T09:11:16;99121.72;;;20.41;57.47
16664;BME280;8445;51.270;9.434;2023-09-19T09:13:51;99130.78;;;20.62;58.08
16664;BME280;8445;51.270;9.434;2023-09-19T09:16:31;99147.88;;;20.73;56.89
16664;BME280;8445;51.270;9.434;2023-09-19T09:19:05;99163.09;;;20.94;56.03
16664;BME280;8445;51.270;9.434;2023-09-19T09:21:34;99156.09;;;20.98;56.06
16664;BME280;8445;51.270;9.434;2023-09-19T09:24:33;99168.28;;;21.06;54.67
16664;BME280;8445;51.270;9.434;2023-09-19T09:27:00;99150.13;;;21.01;54.87
16664;BME280;8445;51.270;9.434;2023-09-19T09:29:59;99150.13;;;21.01;54.44
16664;BME280;8445;51.270;9.434;2023-09-19T09:32:36;99135.47;;;20.92;54.40
16664;BME280;8445;51.270;9.434;2023-09-19T09:35:08;99131.41;;;20.94;52.95
16664;BME280;8445;51.270;9.434;2023-09-19T09:37:43;99183.75;;;21.20;53.80
16664;BME280;8445;51.270;9.434;2023-09-19T09:40:14;99153.66;;;21.07;54.57
16664;BME280;8445;51.270;9.434;2023-09-19T09:42:50;99146.38;;;21.12;54.08
16664;BME280;8445;51.270;9.434;2023-09-19T09:45:42;99163.22;;;21.35;53.53
16664;BME280;8445;51.270;9.434;2023-09-19T09:48:25;99143.66;;;21.22;52.50
16664;BME280;8445;51.270;9.434;2023-09-19T09:51:01;99153.75;;;21.37;53.02
16664;BME280;8445;51.270;9.434;2023-09-19T09:53:32;99164.88;;;21.41;52.46
16664;BME280;8445;51.270;9.434;2023-09-19T09:56:34;99147.53;;;21.42;52.67
16664;BME280;8445;51.270;9.434;2023-09-19T09:59:10;99170.03;;;21.73;52.01
16664;BME280;8445;51.270;9.434;2023-09-19T10:01:47;99164.88;;;21.71;51.89
16664;BME280;8445;51.270;9.434;2023-09-19T10:04:49;99160.28;;;21.82;51.85
16664;BME280;8445;51.270;9.434;2023-09-19T10:07:44;99177.06;;;22.04;51.67
16664;BME280;8445;51.270;9.434;2023-09-19T10:10:40;99158.59;;;22.01;51.33
16664;BME280;8445;51.270;9.434;2023-09-19T10:13:41;99154.28;;;22.00;50.98
16664;BME280;8445;51.270;9.434;2023-09-19T10:16:24;99171.38;;;22.21;50.90
16664;BME280;8445;51.270;9.434;2023-09-19T10:19:00;99156.19;;;22.10;50.23
16664;BME280;8445;51.270;9.434;2023-09-19T10:21:38;99192.47;;;22.39;49.69
16664;BME280;8445;51.270;9.434;2023-09-19T10:24:08;99181.13;;;22.32;50.08
16664;BME280;8445;51.270;9.434;2023-09-19T10:26:37;99199.25;;;22.47;50.08
16664;BME280;8445;51.270;9.434;2023-09-19T10:29:07;99172.38;;;22.51;49.47
16664;BME280;8445;51.270;9.434;2023-09-19T10:31:38;99190.25;;;22.62;49.78
16664;BME280;8445;51.270;9.434;2023-09-19T10:34:09;99178.88;;;22.50;49.86
16664;BME280;8445;51.270;9.434;2023-09-19T10:36:37;99193.00;;;22.52;49.94
16664;BME280;8445;51.270;9.434;2023-09-19T10:39:06;99182.13;;;22.57;49.12
16664;BME280;8445;51.270;9.434;2023-09-19T10:41:43;99160.72;;;22.45;48.54
16664;BME280;8445;51.270;9.434;2023-09-19T10:44:25;99160.69;;;22.50;49.12
16664;BME280;8445;51.270;9.434;2023-09-19T10:46:53;99144.41;;;22.50;49.20
16664;BME280;8445;51.270;9.434;2023-09-19T10:49:25;99148.47;;;22.58;48.11
16664;BME280;8445;51.270;9.434;2023-09-19T10:52:02;99175.00;;;22.76;48.47
16664;BME280;8445;51.270;9.434;2023-09-19T10:54:46;99169.28;;;22.78;48.12
16664;BME280;8445;51.270;9.434;2023-09-19T10:57:24;99132.41;;;22.66;48.77
16664;BME280;8445;51.270;9.434;2023-09-19T11:03:41;99175.38;;;23.14;45.80
16664;BME280;8445;51.270;9.434;2023-09-19T11:06:18;99165.66;;;23.03;45.94
16664;BME280;8445;51.270;9.434;2023-09-19T11:08:59;99138.06;;;22.85;47.02
16664;BME280;8445;51.270;9.434;2023-09-19T11:11:53;99130.13;;;22.94;46.58
16664;BME280;8445;51.270;9.434;2023-09-19T11:30:55;99122.03;;;22.79;45.75
16664;BME280;8445;51.270;9.434;2023-09-19T11:33:32;99147.31;;;22.84;46.03
16664;BME280;8445;51.270;9.434;2023-09-19T11:36:18;99143.50;;;22.75;46.58
16664;BME280;8445;51.270;9.434;2023-09-19T11:46:55;99124.16;;;22.22;47.24
16664;BME280;8445;51.270;9.434;2023-09-19T11:53:16;99114.97;;;22.08;46.96
16664;BME280;8445;51.270;9.434;2023-09-19T11:56:10;99153.72;;;22.24;46.78
16664;BME280;8445;51.270;9.434;2023-09-19T11:59:14;99110.66;;;21.92;46.33
16664;BME280;8445;51.270;9.434;2023-09-19T12:03:10;99156.47;;;22.19;46.07
16664;BME280;8445;51.270;9.434;2023-09-19T12:06:58;99095.47;;;21.60;46.87
16664;BME280;8445;51.270;9.434;2023-09-19T12:13:31;99141.56;;;21.65;46.87
16664;BME280;8445;51.270;9.434;2023-09-19T12:17:05;99112.31;;;21.52;46.83
16664;BME280;8445;51.270;9.434;2023-09-19T12:20:46;99095.22;;;21.41;46.98
16664;BME280;8445;51.270;9.434;2023-09-19T12:27:26;99101.97;;;21.49;46.94
16664;BME280;8445;51.270;9.434;2023-09-19T12:30:18;99109.56;;;21.47;47.35
16664;BME280;8445;51.270;9.434;2023-09-19T12:33:55;99096.84;;;21.27;47.49
16664;BME280;8445;51.270;9.434;2023-09-19T12:37:44;99105.75;;;21.17;47.86
16664;BME280;8445;51.270;9.434;2023-09-19T12:41:25;99091.66;;;21.10;47.33
16664;BME280;8445;51.270;9.434;2023-09-19T12:44:35;99101.66;;;21.10;46.94
16664;BME280;8445;51.270;9.434;2023-09-19T12:56:09;99079.78;;;21.32;47.48
16664;BME280;8445;51.270;9.434;2023-09-19T12:59:29;99124.22;;;21.71;47.19
16664;BME280;8445;51.270;9.434;2023-09-19T13:02:34;99099.81;;;21.31;47.19
16664;BME280;8445;51.270;9.434;2023-09-19T13:10:02;99126.94;;;21.51;47.24
16664;BME280;8445;51.270;9.434;2023-09-19T13:13:29;99094.94;;;21.28;47.82
16664;BME280;8445;51.270;9.434;2023-09-19T13:17:04;99080.00;;;21.20;47.59
16664;BME280;8445;51.270;9.434;2023-09-19T13:24:25;99132.88;;;21.58;47.38
16664;BME280;8445;51.270;9.434;2023-09-19T13:31:10;99096.50;;;21.03;47.58
16664;BME280;8445;51.270;9.434;2023-09-19T13:34:21;99081.06;;;20.83;47.25
16664;BME280;8445;51.270;9.434;2023-09-19T13:37:30;99096.19;;;20.74;48.01
16664;BME280;8445;51.270;9.434;2023-09-19T13:40:35;99127.66;;;21.01;47.35
16664;BME280;8445;51.270;9.434;2023-09-19T13:43:13;99067.19;;;20.70;47.78
16664;BME280;8445;51.270;9.434;2023-09-19T13:49:10;99048.22;;;20.49;48.45
16664;BME280;8445;51.270;9.434;2023-09-19T13:52:00;99051.47;;;20.51;48.50
16664;BME280;8445;51.270;9.434;2023-09-19T13:55:04;99052.00;;;20.53;48.40
16664;BME280;8445;51.270;9.434;2023-09-19T13:57:52;99050.38;;;20.52;48.35
16664;BME280;8445;51.270;9.434;2023-09-19T14:00:47;99049.22;;;20.38;48.34
16664;BME280;8445;51.270;9.434;2023-09-19T14:04:12;99106.16;;;20.63;48.20
16664;BME280;8445;51.270;9.434;2023-09-19T14:08:06;99051.88;;;20.28;48.42
16664;BME280;8445;51.270;9.434;2023-09-19T14:11:40;99077.31;;;20.27;48.68
16664;BME280;8445;51.270;9.434;2023-09-19T14:15:07;99051.06;;;20.17;49.42
16664;BME280;8445;51.270;9.434;2023-09-19T14:19:09;99051.88;;;20.28;49.18
16664;BME280;8445;51.270;9.434;2023-09-19T14:21:58;99061.66;;;20.34;49.16
16664;BME280;8445;51.270;9.434;2023-09-19T14:24:51;99069.31;;;20.47;48.37
16664;BME280;8445;51.270;9.434;2023-09-19T14:27:55;99079.59;;;20.50;48.70
16664;BME280;8445;51.270;9.434;2023-09-19T14:31:45;99049.75;;;20.35;48.22
16664;BME280;8445;51.270;9.434;2023-09-19T14:35:10;99065.13;;;20.29;48.12
16664;BME280;8445;51.270;9.434;2023-09-19T14:42:15;99048.03;;;20.14;48.20
16664;BME280;8445;51.270;9.434;2023-09-19T14:45:51;99031.75;;;19.98;48.61
16664;BME280;8445;51.270;9.434;2023-09-19T14:49:01;99049.63;;;20.04;48.88
16664;BME280;8445;51.270;9.434;2023-09-19T14:55:36;99048.00;;;20.03;48.70
16664;BME280;8445;51.270;9.434;2023-09-19T14:58:46;99065.31;;;20.07;48.73
16664;BME280;8445;51.270;9.434;2023-09-19T15:02:33;99044.41;;;19.88;48.35
16664;BME280;8445;51.270;9.434;2023-09-19T15:09:40;99055.97;;;19.78;48.70
16664;BME280;8445;51.270;9.434;2023-09-19T15:13:12;99084.44;;;19.96;48.86
16664;BME280;8445;51.270;9.434;2023-09-19T15:16:36;99042.59;;;19.61;48.77
16664;BME280;8445;51.270;9.434;2023-09-19T15:35:11;99035.38;;;19.35;49.84
16664;BME280;8445;51.270;9.434;2023-09-19T15:37:44;99070.41;;;19.57;50.51
16664;BME280;8445;51.270;9.434;2023-09-19T15:40:10;99022.19;;;19.38;50.52
16664;BME280;8445;51.270;9.434;2023-09-19T15:42:43;99059.09;;;19.60;50.68
16664;BME280;8445;51.270;9.434;2023-09-19T15:45:15;99034.13;;;19.47;50.68
16664;BME280;8445;51.270;9.434;2023-09-19T15:47:44;99037.88;;;19.41;50.38
16664;BME280;8445;51.270;9.434;2023-09-19T15:50:13;99024.13;;;19.48;50.73
16664;BME280;8445;51.270;9.434;2023-09-19T15:52:43;99026.00;;;19.42;50.76
16664;BME280;8445;51.270;9.434;2023-09-19T15:55:13;99035.75;;;19.48;50.90
16664;BME280;8445;51.270;9.434;2023-09-19T15:57:46;99039.50;;;19.47;50.68
16664;BME280;8445;51.270;9.434;2023-09-19T16:00:15;99023.03;;;19.49;50.32
16664;BME280;8445;51.270;9.434;2023-09-19T16:02:52;99012.19;;;19.39;50.84
16664;BME280;8445;51.270;9.434;2023-09-19T16:05:20;99034.66;;;19.49;51.09
16664;BME280;8445;51.270;9.434;2023-09-19T16:07:55;99049.63;;;19.57;50.78
16664;BME280;8445;51.270;9.434;2023-09-19T16:10:22;99040.03;;;19.44;50.37
16664;BME280;8445;51.270;9.434;2023-09-19T16:12:51;99025.59;;;19.24;51.05
16664;BME280;8445;51.270;9.434;2023-09-19T16:15:18;99041.28;;;19.32;51.65
16664;BME280;8445;51.270;9.434;2023-09-19T16:17:50;99056.72;;;19.36;50.79
16664;BME280;8445;51.270;9.434;2023-09-19T16:20:36;99063.19;;;19.35;51.21
16664;BME280;8445;51.270;9.434;2023-09-19T16:23:11;99064.75;;;19.26;50.96
16664;BME280;8445;51.270;9.434;2023-09-19T16:26:15;99019.66;;;18.95;50.71
16664;BME280;8445;51.270;9.434;2023-09-19T16:28:50;99087.78;;;19.07;50.68
16664;BME280;8445;51.270;9.434;2023-09-19T16:31:31;99050.53;;;18.77;50.89
16664;BME280;8445;51.270;9.434;2023-09-19T16:34:02;99071.84;;;18.78;51.19
16664;BME280;8445;51.270;9.434;2023-09-19T16:36:51;99058.53;;;18.45;51.56
16664;BME280;8445;51.270;9.434;2023-09-19T16:40:05;99044.53;;;18.26;51.89
16664;BME280;8445;51.270;9.434;2023-09-19T16:42:40;99082.66;;;18.35;52.02
16664;BME280;8445;51.270;9.434;2023-09-19T16:45:25;99056.22;;;18.10;52.08
16664;BME280;8445;51.270;9.434;2023-09-19T16:48:05;99081.84;;;18.12;52.41
16664;BME280;8445;51.270;9.434;2023-09-19T16:50:49;99077.47;;;18.06;52.87
16664;BME280;8445;51.270;9.434;2023-09-19T16:53:53;99042.19;;;17.69;53.24
16664;BME280;8445;51.270;9.434;2023-09-19T16:56:26;99060.22;;;17.68;53.54
16664;BME280;8445;51.270;9.434;2023-09-19T16:58:55;99043.88;;;17.58;53.88
16664;BME280;8445;51.270;9.434;2023-09-19T17:01:24;99066.44;;;17.69;53.80
16664;BME280;8445;51.270;9.434;2023-09-19T17:04:04;99038.19;;;17.38;54.13
16664;BME280;8445;51.270;9.434;2023-09-19T17:06:47;99026.19;;;17.29;54.17
16664;BME280;8445;51.270;9.434;2023-09-19T17:09:27;99058.31;;;17.35;54.55
16664;BME280;8445;51.270;9.434;2023-09-19T17:11:54;99056.47;;;17.19;54.86
16664;BME280;8445;51.270;9.434;2023-09-19T17:14:20;99067.78;;;17.21;55.06
16664;BME280;8445;51.270;9.434;2023-09-19T17:16:55;99059.88;;;16.98;55.09
16664;BME280;8445;51.270;9.434;2023-09-19T17:19:23;99080.50;;;17.09;55.29
16664;BME280;8445;51.270;9.434;2023-09-19T17:21:52;99086.28;;;17.01;55.80
16664;BME280;8445;51.270;9.434;2023-09-19T17:24:21;99072.38;;;16.75;55.66
16664;BME280;8445;51.270;9.434;2023-09-19T17:26:53;99073.78;;;16.66;55.72
16664;BME280;8445;51.270;9.434;2023-09-19T17:29:21;99122.00;;;16.96;56.33
16664;BME280;8445;51.270;9.434;2023-09-19T17:31:53;99078.00;;;16.62;56.58
16664;BME280;8445;51.270;9.434;2023-09-19T17:34:26;99069.50;;;16.53;56.37
16664;BME280;8445;51.270;9.434;2023-09-19T17:36:52;99077.19;;;16.62;56.89
16664;BME280;8445;51.270;9.434;2023-09-19T17:39:20;99088.88;;;16.67;56.67
16664;BME280;8445;51.270;9.434;2023-09-19T17:41:52;99077.53;;;16.65;56.63
16664;BME280;8445;51.270;9.434;2023-09-19T17:44:29;99074.03;;;16.65;56.75
16664;BME280;8445;51.270;9.434;2023-09-19T17:47:05;99074.50;;;16.62;57.19
16664;BME280;8445;51.270;9.434;2023-09-19T17:49:36;99065.59;;;16.44;57.41
16664;BME280;8445;51.270;9.434;2023-09-19T17:52:08;99081.09;;;16.42;57.55
16664;BME280;8445;51.270;9.434;2023-09-19T17:54:48;99042.78;;;16.07;57.55
16664;BME280;8445;51.270;9.434;2023-09-19T17:57:38;99044.66;;;15.94;57.47
16664;BME280;8445;51.270;9.434;2023-09-19T18:00:12;99078.19;;;16.04;57.82
16664;BME280;8445;51.270;9.434;2023-09-19T18:02:41;99056.81;;;15.74;58.02
16664;BME280;8445;51.270;9.434;2023-09-19T18:05:26;99117.53;;;15.98;58.14
16664;BME280;8445;51.270;9.434;2023-09-19T18:08:06;99087.41;;;15.73;58.47
16664;BME280;8445;51.270;9.434;2023-09-19T18:10:37;99061.69;;;15.42;58.35
16664;BME280;8445;51.270;9.434;2023-09-19T18:13:06;99051.53;;;15.32;58.57
16664;BME280;8445;51.270;9.434;2023-09-19T18:15:32;99068.91;;;15.29;59.09
16664;BME280;8445;51.270;9.434;2023-09-19T18:18:06;99094.38;;;15.38;59.05
16664;BME280;8445;51.270;9.434;2023-09-19T18:20:37;99093.53;;;15.26;59.33
16664;BME280;8445;51.270;9.434;2023-09-19T18:23:09;99067.94;;;15.00;59.35
16664;BME280;8445;51.270;9.434;2023-09-19T18:25:38;99065.56;;;14.92;59.63
16664;BME280;8445;51.270;9.434;2023-09-19T18:28:07;99105.59;;;15.05;59.87
16664;BME280;8445;51.270;9.434;2023-09-19T18:30:42;99071.00;;;14.74;59.80
16664;BME280;8445;51.270;9.434;2023-09-19T18:33:11;99104.16;;;14.91;60.34
16664;BME280;8445;51.270;9.434;2023-09-19T18:35:43;99124.50;;;14.99;60.64
16664;BME280;8445;51.270;9.434;2023-09-19T18:38:10;99109.72;;;14.78;60.47
16664;BME280;8445;51.270;9.434;2023-09-19T18:40:42;99110.25;;;14.68;60.97
16664;BME280;8445;51.270;9.434;2023-09-19T18:43:14;99069.34;;;14.43;61.11
16664;BME280;8445;51.270;9.434;2023-09-19T18:45:57;99120.84;;;14.63;61.20
16664;BME280;8445;51.270;9.434;2023-09-19T18:48:26;99108.13;;;14.59;61.57
16664;BME280;8445;51.270;9.434;2023-09-19T18:50:52;99067.84;;;14.29;61.54
16664;BME280;8445;51.270;9.434;2023-09-19T18:53:19;99067.84;;;14.29;61.42
16664;BME280;8445;51.270;9.434;2023-09-19T18:56:11;99107.59;;;14.50;61.52
16664;BME280;8445;51.270;9.434;2023-09-19T18:58:49;99085.56;;;14.30;61.62
16664;BME280;8445;51.270;9.434;2023-09-19T19:01:16;99073.50;;;14.20;61.61
16664;BME280;8445;51.270;9.434;2023-09-19T19:03:46;99061.00;;;14.14;61.80
16664;BME280;8445;51.270;9.434;2023-09-19T19:06:14;99099.91;;;14.35;61.97
16664;BME280;8445;51.270;9.434;2023-09-19T19:08:43;99107.59;;;14.32;62.10
16664;BME280;8445;51.270;9.434;2023-09-19T19:11:13;99099.63;;;14.25;61.67
16664;BME280;8445;51.270;9.434;2023-09-19T19:13:42;99063.47;;;13.98;62.28
16664;BME280;8445;51.270;9.434;2023-09-19T19:16:22;99136.03;;;14.33;62.56
16664;BME280;8445;51.270;9.434;2023-09-19T19:18:55;99139.16;;;14.30;62.75
16664;BME280;8445;51.270;9.434;2023-09-19T19:21:21;99106.53;;;14.14;62.73
16664;BME280;8445;51.270;9.434;2023-09-19T19:23:50;99113.16;;;14.12;63.04
16664;BME280;8445;51.270;9.434;2023-09-19T19:26:26;99098.59;;;14.08;63.28
16664;BME280;8445;51.270;9.434;2023-09-19T19:29:00;99107.44;;;14.08;63.29
16664;BME280;8445;51.270;9.434;2023-09-19T19:31:26;99109.75;;;14.05;63.09
16664;BME280;8445;51.270;9.434;2023-09-19T19:33:56;99100.00;;;13.92;63.33
16664;BME280;8445;51.270;9.434;2023-09-19T19:36:36;99117.38;;;14.01;63.22
16664;BME280;8445;51.270;9.434;2023-09-19T19:39:05;99086.97;;;13.77;63.14
16664;BME280;8445;51.270;9.434;2023-09-19T19:41:39;99142.84;;;14.10;63.23
16664;BME280;8445;51.270;9.434;2023-09-19T19:44:39;99076.31;;;13.71;63.38